createdAt,value
2022-09-03T08:26:41.289Z,2.28
2022-09-03T08:29:08.500Z,2.20
2022-09-03T08:31:36.645Z,1.75
2022-09-03T08:34:06.748Z,1.90
2022-09-03T08:36:38.511Z,1.90
2022-09-03T08:39:10.964Z,2.13
2022-09-03T08:42:08.311Z,1.80
2022-09-03T08:44:49.889Z,2.13
2022-09-03T08:47:25.121Z,2.10
2022-09-03T08:49:55.354Z,2.33
2022-09-03T08:52:28.447Z,2.25
2022-09-03T08:55:02.406Z,2.58
2022-09-03T08:57:36.947Z,2.13
2022-09-03T09:00:04.491Z,2.45
2022-09-03T09:03:09.980Z,2.55
2022-09-03T09:05:51.142Z,2.30
2022-09-03T09:08:20.432Z,2.05
2022-09-03T09:10:52.863Z,2.47
2022-09-03T09:13:34.433Z,2.15
2022-09-03T09:16:23.591Z,2.10
2022-09-03T09:18:59.429Z,2.22
2022-09-03T09:21:39.499Z,2.30
2022-09-03T09:24:12.949Z,2.30
2022-09-03T09:26:41.730Z,1.77
2022-09-03T09:29:10.773Z,2.17
2022-09-03T09:31:45.073Z,2.70
2022-09-03T09:34:12.035Z,2.80
2022-09-03T09:36:47.659Z,2.28
2022-09-03T09:39:17.626Z,2.10
2022-09-03T09:41:56.601Z,2.15
2022-09-03T09:44:25.934Z,2.17
2022-09-03T09:47:04.815Z,2.08
2022-09-03T09:49:37.010Z,2.40
2022-09-03T09:52:12.383Z,1.90
2022-09-03T09:54:41.872Z,2.10
2022-09-03T09:57:18.201Z,3.20
2022-09-03T09:59:46.215Z,2.75
2022-09-03T10:02:34.546Z,2.92
2022-09-03T10:05:25.654Z,2.47
2022-09-03T10:08:20.914Z,2.63
2022-09-03T10:10:51.056Z,2.30
2022-09-03T10:13:24.375Z,2.35
2022-09-03T10:16:05.580Z,3.22
2022-09-03T10:19:10.229Z,2.80
2022-09-03T10:21:47.578Z,3.00
2022-09-03T10:24:34.216Z,2.50
2022-09-03T10:27:01.723Z,2.03
2022-09-03T10:29:30.194Z,2.20
2022-09-03T10:32:13.479Z,2.17
2022-09-03T10:34:46.116Z,2.50
2022-09-03T10:37:34.464Z,2.78
2022-09-03T10:40:07.561Z,2.90
2022-09-03T10:42:52.408Z,2.67
2022-09-03T10:45:37.696Z,2.90
2022-09-03T10:48:40.137Z,3.25
2022-09-03T10:51:20.433Z,2.88
2022-09-03T10:54:08.299Z,2.17
2022-09-03T10:56:43.606Z,2.85
2022-09-03T10:59:12.870Z,2.28
2022-09-03T11:01:57.101Z,3.25
2022-09-03T11:04:38.981Z,2.75
2022-09-03T11:07:09.913Z,2.90
2022-09-03T11:09:51.513Z,3.17
2022-09-03T11:12:27.834Z,3.67
2022-09-03T11:15:03.773Z,3.25
2022-09-03T11:17:38.174Z,2.78
2022-09-03T11:20:19.046Z,3.67
2022-09-03T11:22:47.871Z,2.20
2022-09-03T11:25:17.564Z,2.97
2022-09-03T11:28:18.213Z,3.42
2022-09-03T11:31:03.645Z,2.40
2022-09-03T11:33:33.543Z,2.95
2022-09-03T11:36:01.739Z,3.22
2022-09-03T11:38:31.969Z,2.90
2022-09-03T11:41:04.215Z,3.08
2022-09-03T11:43:32.978Z,2.58
2022-09-03T11:46:14.684Z,2.78
2022-09-03T11:48:45.980Z,3.53
2022-09-03T11:51:30.651Z,2.80
2022-09-03T11:54:13.350Z,3.00
2022-09-03T11:56:42.361Z,3.03
2022-09-03T11:59:17.158Z,2.50
2022-09-03T12:01:52.897Z,3.00
2022-09-03T12:04:31.358Z,2.92
2022-09-03T12:07:38.568Z,2.97
2022-09-03T12:10:05.074Z,3.53
2022-09-03T12:15:19.205Z,3.40
2022-09-03T12:18:21.623Z,3.78
2022-09-03T12:20:59.606Z,3.25
2022-09-03T12:23:32.375Z,3.15
2022-09-03T12:26:06.066Z,3.45
2022-09-03T12:28:37.332Z,3.30
2022-09-03T12:31:22.515Z,3.08
2022-09-03T12:34:11.382Z,2.85
2022-09-03T12:36:41.055Z,3.08
2022-09-03T12:39:13.511Z,3.53
2022-09-03T12:41:57.047Z,2.63
2022-09-03T12:44:39.451Z,2.88
2022-09-03T12:47:37.012Z,3.70
2022-09-03T12:50:11.088Z,3.58
2022-09-03T12:52:56.401Z,3.10
2022-09-03T12:55:35.470Z,2.88
2022-09-03T12:58:17.192Z,2.35
2022-09-03T13:01:03.945Z,2.67
2022-09-03T13:03:43.365Z,3.03
2022-09-03T13:06:14.186Z,3.20
2022-09-03T13:09:10.662Z,3.00
2022-09-03T13:11:37.390Z,3.00
2022-09-03T13:14:12.547Z,3.30
2022-09-03T13:16:45.078Z,3.88
2022-09-03T13:19:35.905Z,2.90
2022-09-03T13:22:08.283Z,3.15
2022-09-03T13:24:59.885Z,3.22
2022-09-03T13:27:43.056Z,2.95
2022-09-03T13:30:13.617Z,2.38
2022-09-03T13:33:01.068Z,2.80
2022-09-03T13:35:42.630Z,2.58
2022-09-03T13:38:25.820Z,4.28
2022-09-03T13:41:05.631Z,3.35
2022-09-03T13:43:43.897Z,2.95
2022-09-03T13:46:39.981Z,2.95
2022-09-03T13:49:40.724Z,2.70
2022-09-03T13:52:19.504Z,2.75
2022-09-03T13:54:53.121Z,3.25
2022-09-03T13:57:32.751Z,3.15
2022-09-03T14:00:10.118Z,3.53
2022-09-03T14:03:06.469Z,2.45
2022-09-03T14:06:04.978Z,2.85
2022-09-03T14:09:02.356Z,3.03
2022-09-03T14:11:53.133Z,2.93
2022-09-03T14:15:03.453Z,3.28
2022-09-03T14:17:56.124Z,2.83
2022-09-03T14:20:28.764Z,3.20
2022-09-03T14:23:34.729Z,3.55
2022-09-03T14:26:05.401Z,3.03
2022-09-03T14:28:36.347Z,3.30
2022-09-03T14:31:06.106Z,4.05
2022-09-03T14:34:00.367Z,3.45
2022-09-03T14:36:40.084Z,3.90
2022-09-03T14:39:21.684Z,3.50
2022-09-03T14:42:23.214Z,3.97
2022-09-03T14:44:52.632Z,3.20
2022-09-03T14:47:53.878Z,3.33
2022-09-03T14:50:32.312Z,2.72
2022-09-03T14:53:30.100Z,3.40
2022-09-03T14:56:28.710Z,3.40
2022-09-03T14:59:34.621Z,3.40
2022-09-03T15:02:27.831Z,3.63
2022-09-03T15:05:15.461Z,3.50
2022-09-03T15:07:49.152Z,2.92
2022-09-03T15:10:50.311Z,3.15
2022-09-03T15:13:26.089Z,4.03
2022-09-03T15:16:02.144Z,4.50
2022-09-03T15:19:06.067Z,4.28
2022-09-03T15:21:54.720Z,4.15
2022-09-03T15:24:50.759Z,4.05
2022-09-03T15:28:02.200Z,3.40
2022-09-03T15:30:56.379Z,3.53
2022-09-03T15:33:54.889Z,4.40
2022-09-03T15:36:24.303Z,3.42
2022-09-03T15:38:58.096Z,3.88
2022-09-03T15:41:59.854Z,3.03
2022-09-03T15:44:35.399Z,3.38
2022-09-03T15:47:14.030Z,2.88
2022-09-03T15:50:29.608Z,7.10
2022-09-03T15:52:59.773Z,3.80
2022-09-03T15:55:28.967Z,3.90
2022-09-03T15:58:08.535Z,3.47
2022-09-03T16:00:41.901Z,2.95
2022-09-03T16:03:11.400Z,2.20
2022-09-03T16:06:16.742Z,2.30
2022-09-03T16:09:10.636Z,1.50
2022-09-03T16:11:49.077Z,2.20
2022-09-03T16:14:23.230Z,4.75
2022-09-03T16:16:59.399Z,3.03
2022-09-03T16:19:48.112Z,4.60
2022-09-03T16:22:26.673Z,2.63
2022-09-03T16:25:01.127Z,2.03
2022-09-03T16:27:56.246Z,1.40
2022-09-03T16:30:37.349Z,1.30
2022-09-03T16:33:19.072Z,1.50
2022-09-03T16:36:00.715Z,1.92
2022-09-03T16:38:34.855Z,1.50
2022-09-03T16:41:12.859Z,1.75
2022-09-03T16:43:45.045Z,1.65
2022-09-03T16:46:34.502Z,1.95
2022-09-03T16:49:12.608Z,2.10
2022-09-03T16:51:55.937Z,2.28
2022-09-03T16:54:38.340Z,1.42
2022-09-03T16:57:24.295Z,1.20
2022-09-03T17:00:08.462Z,1.02
2022-09-03T17:02:52.343Z,1.80
2022-09-03T17:05:34.135Z,1.30
2022-09-03T17:08:08.330Z,1.15
2022-09-03T17:10:48.886Z,1.45
2022-09-03T17:13:35.864Z,1.95
2022-09-03T17:16:31.871Z,1.80
2022-09-03T17:19:13.544Z,1.73
2022-09-03T17:22:34.225Z,1.10
2022-09-03T17:25:08.776Z,1.60
2022-09-03T17:27:57.212Z,1.40
2022-09-03T17:30:48.556Z,1.20
2022-09-03T17:33:35.483Z,1.50
2022-09-03T17:36:18.668Z,1.58
2022-09-03T17:39:22.588Z,1.50
2022-09-03T17:41:58.634Z,1.70
2022-09-03T17:44:59.670Z,1.75
2022-09-03T17:48:05.443Z,1.63
2022-09-03T17:50:43.558Z,1.58
2022-09-03T17:53:18.931Z,1.33
2022-09-03T17:55:56.662Z,1.40
2022-09-03T17:58:31.100Z,1.92
2022-09-03T18:01:07.675Z,1.70
2022-09-03T18:03:45.779Z,1.80
2022-09-03T18:06:31.988Z,1.55
2022-09-03T18:09:19.981Z,1.75
2022-09-03T18:11:56.304Z,1.63
2022-09-03T18:14:39.847Z,1.47
2022-09-03T18:17:16.625Z,1.60
2022-09-03T18:20:10.779Z,1.30
2022-09-03T18:23:07.435Z,1.40
2022-09-03T18:25:55.873Z,1.52
2022-09-03T18:28:50.631Z,1.80
2022-09-03T18:31:35.586Z,1.60
2022-09-03T18:34:22.519Z,1.42
2022-09-03T18:37:07.880Z,1.37
2022-09-03T18:39:53.161Z,1.88
2022-09-03T18:43:06.795Z,2.15
2022-09-03T18:46:46.209Z,2.00
2022-09-03T18:49:16.632Z,1.40
2022-09-03T18:52:14.830Z,2.30
2022-09-03T18:55:12.090Z,1.73
2022-09-03T18:58:07.355Z,1.83
2022-09-03T19:00:58.012Z,2.17
2022-09-03T19:04:07.019Z,1.83
2022-09-03T19:07:20.482Z,2.10
2022-09-03T19:10:24.160Z,1.27
2022-09-03T19:13:15.326Z,2.20
2022-09-03T19:16:11.111Z,2.45
2022-09-03T19:19:27.245Z,1.55
2022-09-03T19:22:26.531Z,2.00
2022-09-03T19:25:18.120Z,2.20
2022-09-03T19:28:21.417Z,1.60
2022-09-03T19:31:14.905Z,2.00
2022-09-03T19:34:16.585Z,2.10
2022-09-03T19:37:25.308Z,1.92
2022-09-03T19:40:32.829Z,2.22
2022-09-03T19:43:37.179Z,1.60
2022-09-03T19:46:31.667Z,2.22
2022-09-03T19:49:30.107Z,1.75
2022-09-03T19:52:30.292Z,1.55
2022-09-03T19:55:16.720Z,1.80
2022-09-03T19:58:16.650Z,2.15
2022-09-03T20:01:12.201Z,2.38
2022-09-03T20:03:58.087Z,2.42
2022-09-03T20:06:43.200Z,2.50
2022-09-03T20:09:28.826Z,2.50
2022-09-03T20:11:58.328Z,3.55
2022-09-03T20:14:24.819Z,2.85
2022-09-03T20:17:16.459Z,3.15
2022-09-03T20:20:06.992Z,3.05
2022-09-03T20:22:47.231Z,2.67
2022-09-03T20:26:10.724Z,2.38
2022-09-03T20:28:57.768Z,2.85
2022-09-03T20:31:34.850Z,2.60
2022-09-03T20:34:19.049Z,2.67
2022-09-03T20:36:57.633Z,2.08
2022-09-03T20:39:42.321Z,2.70
2022-09-03T20:42:25.344Z,2.42
2022-09-03T20:45:13.162Z,2.60
2022-09-03T20:48:00.077Z,2.58
2022-09-03T20:51:05.200Z,2.67
2022-09-03T20:53:43.472Z,2.92
2022-09-03T20:56:16.352Z,2.65
2022-09-03T20:59:07.620Z,2.47
2022-09-03T21:01:46.511Z,2.70
2022-09-03T21:04:22.474Z,3.17
2022-09-03T21:07:22.839Z,3.08
2022-09-03T21:10:02.998Z,2.42
2022-09-03T21:12:57.167Z,2.50
2022-09-03T21:15:42.496Z,2.80
2022-09-03T21:18:20.255Z,3.05
2022-09-03T21:21:05.417Z,2.15
2022-09-03T21:23:38.243Z,2.50
2022-09-03T21:26:17.026Z,2.70
2022-09-03T21:28:59.917Z,2.70
2022-09-03T21:31:38.377Z,2.92
2022-09-03T21:34:16.728Z,2.83
2022-09-03T21:36:43.638Z,2.60
2022-09-03T21:39:15.168Z,2.10
2022-09-03T21:41:53.187Z,2.42
2022-09-03T21:44:41.567Z,2.42
2022-09-03T21:47:13.922Z,2.17
2022-09-03T21:50:16.684Z,2.25
2022-09-03T21:53:06.883Z,2.53
2022-09-03T21:55:46.059Z,1.92
2022-09-03T21:58:29.960Z,2.15
2022-09-03T22:03:07.878Z,2.67
2022-09-03T22:06:02.111Z,2.28
2022-09-03T22:08:49.984Z,2.20
2022-09-03T22:11:44.964Z,2.25
2022-09-03T22:14:17.575Z,2.95
2022-09-03T22:17:04.321Z,2.90
2022-09-03T22:19:37.403Z,2.47
2022-09-03T22:22:08.207Z,2.58
2022-09-03T22:24:58.835Z,2.28
2022-09-03T22:27:49.665Z,2.20
2022-09-03T22:30:21.243Z,2.47
2022-09-03T22:33:15.433Z,2.90
2022-09-03T22:35:55.469Z,2.45
2022-09-03T22:38:25.381Z,3.05
2022-09-03T22:41:27.249Z,2.55
2022-09-03T22:44:09.480Z,2.70
2022-09-03T22:46:52.777Z,2.55
2022-09-03T22:49:37.414Z,3.08
2022-09-03T22:52:28.042Z,3.15
2022-09-03T22:55:16.580Z,3.00
2022-09-03T22:57:51.813Z,2.67
2022-09-03T23:00:18.994Z,2.70
2022-09-03T23:02:53.818Z,2.80
2022-09-03T23:05:27.767Z,2.85
2022-09-03T23:08:01.775Z,2.60
2022-09-03T23:10:36.377Z,2.60
2022-09-03T23:13:05.647Z,2.58
2022-09-03T23:15:36.067Z,2.67
2022-09-03T23:18:17.485Z,2.63
2022-09-03T23:21:03.940Z,2.15
2022-09-03T23:23:46.896Z,2.67
2022-09-03T23:26:27.073Z,2.60
2022-09-03T23:29:17.235Z,2.75
2022-09-03T23:31:43.911Z,2.88
2022-09-03T23:37:01.331Z,4.15
2022-09-03T23:39:33.099Z,4.03
2022-09-03T23:42:11.528Z,4.25
2022-09-03T23:44:52.185Z,3.55
2022-09-03T23:47:45.885Z,4.05
2022-09-03T23:50:31.696Z,3.03
2022-09-03T23:53:10.456Z,4.55
2022-09-03T23:56:05.236Z,4.90
2022-09-03T23:58:50.647Z,5.65
